KMBS/MBS METAR and TAF weather

Enter ICAO airport designator
Station Type Date Time Source
KMBS METAR 2021/03/02 16:53 UTC NOAA

KMBS 021653Z AUTO 20013KT 10SM CLR M01/M10 A3018 RMK AO2 SLP230 T10111100


Station Type Date Time Source
KMBS Decoded METAR 2021/03/02 16:53 UTC NOAA

MBS INTERNATIONAL AIRPORT, MI, United States (KMBS) 43-32N 084-05W 202M
Mar 02, 2021 - 11:53 AM EST / 2021.03.02 1653 UTC
Wind: from the SSW (200 degrees) at 15 MPH (13 KT):0
Visibility: 10 mile(s):0
Sky conditions: clear
Temperature: 30.0 F (-1.1 C)
Windchill: 19 F (-7 C):1
Dew Point: 14.0 F (-10.0 C)
Relative Humidity: 50%
Pressure (altimeter): 30.18 in. Hg (1022 hPa)
ob: KMBS 021653Z AUTO 20013KT 10SM CLR M01/M10 A3018 RMK AO2 SLP230 T10111100
cycle: 17

Station Type Date Time Source
KMBS TAF 2021/03/02 18:24 UTC NOAA

TAF KMBS 021722Z 0218/0318 22016KT P6SM FEW250
FM021900 23018G28KT P6SM SCT080 BKN250
FM030000 22008G19KT P6SM SKC
FM030600 24011KT P6SM SCT250

Example: see airport list